Time;durP1;ratioP1;P1;durP2;ratioP2;P2;SDS_P1;SDS_P2;PMS_P1;PMS_P2;Temp;Humidity;BMP_temperature;BMP_pressure;BME280_temperature;BME280_humidity;BME280_pressure;Samples;Min_cycle;Max_cycle;Signal;HPM_P1;HPM_P2
2022/03/24 00:00:40;;;;;;;;;;;;;;;;;;5127167;27;19907;-76
2022/03/24 00:03:06;;;;;;;;;;;;;;;;;;5144281;27;20212;-76
2022/03/24 00:05:32;;;;;;;;;;;;;;;;;;5162544;27;19922;-76
2022/03/24 00:07:58;;;;;;;;;;;;;;;;;;5163442;27;20002;-76
2022/03/24 00:10:23;;;;;;;;;;;;;;;;;;5144155;27;20006;-75
2022/03/24 00:12:51;;;;;;;;;;;;;;;;;;5144372;27;19990;-76
2022/03/24 00:15:16;;;;;;;;;;;;;;;;;;5163144;27;19914;-75
2022/03/24 00:17:42;;;;;;;;;;;;;;;;;;5162302;27;19911;-76
2022/03/24 00:20:08;;;;;;;;;;;;;;;;;;5161858;27;19915;-76
2022/03/24 00:22:33;;;;;;;;;;;;;;;;;;5162266;27;20216;-76
2022/03/24 00:24:59;;;;;;;;;;;;;;;;;;5161585;27;19978;-76
2022/03/24 00:27:25;;;;;;;;;;;;;;;;;;5162213;27;19960;-76
2022/03/24 00:29:51;;;;;;;;;;;;;;;;;;5126668;27;19914;-76
2022/03/24 00:32:16;;;;;;;;;;;;;;;;;;5161775;27;20287;-75
2022/03/24 00:34:42;;;;;;;;;;;;;;;;;;5162173;27;19915;-75
2022/03/24 00:37:09;;;;;;;;;;;;;;;;;;5162130;27;19990;-75
2022/03/24 00:39:35;;;;;;;;;;;;;;;;;;5143572;27;19959;-75
2022/03/24 00:42:01;;;;;;;;;;;;;;;;;;5142927;27;20232;-75
2022/03/24 00:44:27;;;;;;;;;;;;;;;;;;5161781;27;19964;-76
2022/03/24 00:46:52;;;;;;;;;;;;;;;;;;5161710;27;19907;-75
2022/03/24 00:49:18;;;;;;;;;;;;;;;;;;5161673;27;19913;-75
2022/03/24 00:51:44;;;;;;;;;;;;;;;;;;5161473;27;19961;-75
2022/03/24 00:54:10;;;;;;;;;;;;;;;;;;5161111;27;19919;-76
2022/03/24 00:56:35;;;;;;;;;;;;;;;;;;5161851;27;19962;-75
2022/03/24 00:59:01;;;;;;;;;;;;;;;;;;5161120;27;19914;-75
2022/03/24 01:01:27;;;;;;;;;;;;;;;;;;5162445;27;19907;-75
2022/03/24 01:03:53;;;;;;;;;;;;;;;;;;5142867;27;19959;-75
2022/03/24 01:06:19;;;;;;;;;;;;;;;;;;5160741;27;19922;-75
2022/03/24 01:08:45;;;;;;;;;;;;;;;;;;5161207;27;19949;-75
2022/03/24 01:11:10;;;;;;;;;;;;;;;;;;5142552;27;20307;-76
2022/03/24 01:13:38;;;;;;;;;;;;;;;;;;5161506;27;19914;-76
2022/03/24 01:16:03;;;;;;;;;;;;;;;;;;5161003;27;19911;-76
2022/03/24 01:18:32;;;;;;;;;;;;;;;;;;5160624;27;19907;-76
2022/03/24 01:21:00;;;;;;;;;;;;;;;;;;5142570;27;19913;-75
2022/03/24 01:23:26;;;;;;;;;;;;;;;;;;5141987;27;19946;-76
2022/03/24 01:25:54;;;;;;;;;;;;;;;;;;5160978;27;19947;-75
2022/03/24 01:28:20;;;;;;;;;;;;;;;;;;5161268;27;19952;-76
2022/03/24 01:30:48;;;;;;;;;;;;;;;;;;5124329;27;19907;-75
2022/03/24 01:33:14;;;;;;;;;;;;;;;;;;5125664;27;19918;-74
2022/03/24 01:35:40;;;;;;;;;;;;;;;;;;5143333;22;19923;-75
2022/03/24 01:38:05;;;;;;;;;;;;;;;;;;5137714;27;19929;-75
2022/03/24 01:40:31;;;;;;;;;;;;;;;;;;5137854;27;19914;-74
2022/03/24 01:43:00;;;;;;;;;;;;;;;;;;5119940;27;19911;-75
2022/03/24 01:45:26;;;;;;;;;;;;;;;;;;5136080;27;19927;-76
2022/03/24 01:47:52;;;;;;;;;;;;;;;;;;5138349;27;19907;-75
2022/03/24 01:50:19;;;;;;;;;;;;;;;;;;5137448;27;19998;-76
2022/03/24 01:52:44;;;;;;;;;;;;;;;;;;5137725;27;20213;-76
2022/03/24 01:55:11;;;;;;;;;;;;;;;;;;5137842;27;20043;-75
2022/03/24 01:57:36;;;;;;;;;;;;;;;;;;5136016;27;19918;-76
2022/03/24 02:00:02;;;;;;;;;;;;;;;;;;5138702;27;19907;-76
2022/03/24 02:02:28;;;;;;;;;;;;;;;;;;5138597;27;19996;-75
2022/03/24 02:04:53;;;;;;;;;;;;;;;;;;5140463;27;20305;-76
2022/03/24 02:07:20;;;;;;;;;;;;;;;;;;5137277;27;19908;-76
2022/03/24 02:09:46;;;;;;;;;;;;;;;;;;5139051;27;19911;-76
2022/03/24 02:12:11;;;;;;;;;;;;;;;;;;5138330;27;19914;-75
2022/03/24 02:14:37;;;;;;;;;;;;;;;;;;5121966;27;20305;-75
2022/03/24 02:17:03;;;;;;;;;;;;;;;;;;5121002;27;19939;-76
2022/03/24 02:19:29;;;;;;;;;;;;;;;;;;5121095;27;20298;-76
2022/03/24 02:21:54;;;;;;;;;;;;;;;;;;5138069;27;19911;-75
2022/03/24 02:24:20;;;;;;;;;;;;;;;;;;5137916;27;19908;-76
2022/03/24 02:26:46;;;;;;;;;;;;;;;;;;5136860;27;19917;-75
2022/03/24 02:29:11;;;;;;;;;;;;;;;;;;5138789;27;19908;-77
2022/03/24 02:31:38;;;;;;;;;;;;;;;;;;5139209;27;20007;-76
2022/03/24 02:36:49;;;;;;;;;;;;;;;;;;5116712;28;20306;-76
2022/03/24 02:39:14;;;;;;;;;;;;;;;;;;5116726;28;19907;-75
2022/03/24 02:41:40;;;;;;;;;;;;;;;;;;5117556;28;20377;-77
2022/03/24 02:44:06;;;;;;;;;;;;;;;;;;5099110;28;19919;-76
2022/03/24 02:46:32;;;;;;;;;;;;;;;;;;5116839;28;20479;-75
2022/03/24 02:48:57;;;;;;;;;;;;;;;;;;5115424;28;19912;-76
2022/03/24 02:51:23;;;;;;;;;;;;;;;;;;5115440;28;20294;-76
2022/03/24 02:53:49;;;;;;;;;;;;;;;;;;5116787;28;19914;-75
2022/03/24 02:56:14;;;;;;;;;;;;;;;;;;5115571;28;19908;-74
2022/03/24 02:58:41;;;;;;;;;;;;;;;;;;5100649;28;19927;-75
2022/03/24 03:01:06;;;;;;;;;;;;;;;;;;5118469;28;19912;-76
2022/03/24 03:03:32;;;;;;;;;;;;;;;;;;5119374;28;19994;-76
2022/03/24 03:05:58;;;;;;;;;;;;;;;;;;5115843;28;19916;-76
2022/03/24 03:08:25;;;;;;;;;;;;;;;;;;5115179;28;20438;-76
2022/03/24 03:10:51;;;;;;;;;;;;;;;;;;5118151;28;19908;-76
2022/03/24 03:13:28;;;;;;;;;;;;;;;;;;5120258;28;19931;-76
2022/03/24 03:15:55;;;;;;;;;;;;;;;;;;5110837;22;19954;-77
2022/03/24 03:18:22;;;;;;;;;;;;;;;;;;5103275;28;19914;-76
2022/03/24 03:20:49;;;;;;;;;;;;;;;;;;5119782;28;20365;-75
2022/03/24 03:23:15;;;;;;;;;;;;;;;;;;5118996;28;19908;-75
2022/03/24 03:25:41;;;;;;;;;;;;;;;;;;5119561;28;20014;-75
2022/03/24 03:28:07;;;;;;;;;;;;;;;;;;5103230;28;19908;-75
2022/03/24 03:30:34;;;;;;;;;;;;;;;;;;5119121;28;19908;-76
2022/03/24 03:33:00;;;;;;;;;;;;;;;;;;5120644;28;19915;-76
2022/03/24 03:35:29;;;;;;;;;;;;;;;;;;5120939;28;19911;-76
2022/03/24 03:37:55;;;;;;;;;;;;;;;;;;5119241;28;19951;-76
2022/03/24 03:40:24;;;;;;;;;;;;;;;;;;5127220;22;20014;-77
2022/03/24 03:42:51;;;;;;;;;;;;;;;;;;5141043;27;19908;-77
2022/03/24 03:45:18;;;;;;;;;;;;;;;;;;5134179;22;19924;-76
2022/03/24 03:47:44;;;;;;;;;;;;;;;;;;5122045;28;20068;-77
2022/03/24 03:50:10;;;;;;;;;;;;;;;;;;5120591;28;20225;-76
2022/03/24 03:52:36;;;;;;;;;;;;;;;;;;5120978;28;20274;-76
2022/03/24 03:55:02;;;;;;;;;;;;;;;;;;5118892;28;19998;-76
2022/03/24 03:57:28;;;;;;;;;;;;;;;;;;5119259;28;19908;-76
2022/03/24 03:59:55;;;;;;;;;;;;;;;;;;5112671;22;19966;-77
2022/03/24 04:02:21;;;;;;;;;;;;;;;;;;5142800;27;19907;-75
2022/03/24 04:04:47;;;;;;;;;;;;;;;;;;5109803;27;19960;-77
2022/03/24 04:07:13;;;;;;;;;;;;;;;;;;5150385;22;20022;-77
2022/03/24 04:09:38;;;;;;;;;;;;;;;;;;5143685;27;19954;-74
2022/03/24 04:12:04;;;;;;;;;;;;;;;;;;5141399;27;19957;-77
2022/03/24 04:14:32;;;;;;;;;;;;;;;;;;5121059;27;19994;-75
2022/03/24 04:17:00;;;;;;;;;;;;;;;;;;5103276;27;19911;-74
2022/03/24 04:19:27;;;;;;;;;;;;;;;;;;5118338;27;19959;-74
2022/03/24 04:21:54;;;;;;;;;;;;;;;;;;5118343;27;19947;-74
2022/03/24 04:24:20;;;;;;;;;;;;;;;;;;5137933;27;19995;-75
2022/03/24 04:26:45;;;;;;;;;;;;;;;;;;5117266;27;20229;-75
2022/03/24 04:29:11;;;;;;;;;;;;;;;;;;5116882;27;19908;-76
2022/03/24 04:31:37;;;;;;;;;;;;;;;;;;5117621;27;19915;-75
2022/03/24 04:34:04;;;;;;;;;;;;;;;;;;5100489;27;19916;-75
2022/03/24 04:36:37;;;;;;;;;;;;;;;;;;5117332;27;19903;-74
2022/03/24 04:39:08;;;;;;;;;;;;;;;;;;5101374;27;20113;-74
2022/03/24 04:41:36;;;;;;;;;;;;;;;;;;5102764;27;19911;-75
2022/03/24 04:44:03;;;;;;;;;;;;;;;;;;5102944;27;20075;-75
2022/03/24 04:46:29;;;;;;;;;;;;;;;;;;5122072;27;19920;-76
2022/03/24 04:48:55;;;;;;;;;;;;;;;;;;5141221;27;20320;-75
2022/03/24 04:51:21;;;;;;;;;;;;;;;;;;5123256;27;19914;-78
2022/03/24 04:53:48;;;;;;;;;;;;;;;;;;5105277;27;20189;-74
2022/03/24 04:56:20;;;;;;;;;;;;;;;;;;5106105;27;19908;-76
2022/03/24 04:58:49;;;;;;;;;;;;;;;;;;5126685;27;19913;-76
2022/03/24 05:01:18;;;;;;;;;;;;;;;;;;5142897;27;20183;-76
2022/03/24 05:03:46;;;;;;;;;;;;;;;;;;5103829;27;19915;-75
2022/03/24 05:06:12;;;;;;;;;;;;;;;;;;5141127;27;19965;-75
2022/03/24 05:08:41;;;;;;;;;;;;;;;;;;5140341;27;20252;-77
2022/03/24 05:11:10;;;;;;;;;;;;;;;;;;5125058;27;19976;-76
2022/03/24 05:13:36;;;;;;;;;;;;;;;;;;5122812;27;19908;-77
2022/03/24 05:16:02;;;;;;;;;;;;;;;;;;5103934;27;19907;-78
2022/03/24 05:18:28;;;;;;;;;;;;;;;;;;5119887;28;20308;-77
2022/03/24 05:20:55;;;;;;;;;;;;;;;;;;5140671;22;19923;-77
2022/03/24 05:23:21;;;;;;;;;;;;;;;;;;5136466;27;19907;-76
2022/03/24 05:25:50;;;;;;;;;;;;;;;;;;5135149;27;19915;-74
2022/03/24 05:28:16;;;;;;;;;;;;;;;;;;5119965;27;19971;-74
2022/03/24 05:30:42;;;;;;;;;;;;;;;;;;5136466;27;19990;-74
2022/03/24 05:33:08;;;;;;;;;;;;;;;;;;5136495;27;19965;-75
2022/03/24 05:35:35;;;;;;;;;;;;;;;;;;5135927;27;19908;-76
2022/03/24 05:38:01;;;;;;;;;;;;;;;;;;5136989;27;19908;-76
2022/03/24 05:40:27;;;;;;;;;;;;;;;;;;5136265;27;19960;-76
2022/03/24 05:42:53;;;;;;;;;;;;;;;;;;5138343;27;19929;-77
2022/03/24 05:45:19;;;;;;;;;;;;;;;;;;5136776;27;19928;-75
2022/03/24 05:47:45;;;;;;;;;;;;;;;;;;5133401;27;19914;-75
2022/03/24 05:50:12;;;;;;;;;;;;;;;;;;5115727;27;19915;-74
2022/03/24 05:52:39;;;;;;;;;;;;;;;;;;5120176;27;19912;-78
2022/03/24 05:55:05;;;;;;;;;;;;;;;;;;5126029;22;19923;-77
2022/03/24 05:57:35;;;;;;;;;;;;;;;;;;5138992;27;19971;-76
2022/03/24 06:00:01;;;;;;;;;;;;;;;;;;5156152;27;19953;-76
2022/03/24 06:02:27;;;;;;;;;;;;;;;;;;5136173;27;20311;-76
2022/03/24 06:05:11;;;;;;;;;;;;;;;;;;5136590;22;19974;-77
2022/03/24 06:07:40;;;;;;;;;;;;;;;;;;5153268;27;20117;-75
2022/03/24 06:10:17;;;;;;;;;;;;;;;;;;5139253;27;20857;-75
2022/03/24 06:12:47;;;;;;;;;;;;;;;;;;5123203;27;19923;-75
2022/03/24 06:15:17;;;;;;;;;;;;;;;;;;5135049;27;19984;-74
2022/03/24 06:18:05;;;;;;;;;;;;;;;;;;5150206;22;20326;-76
2022/03/24 06:20:36;;;;;;;;;;;;;;;;;;5135133;27;19922;-76
2022/03/24 06:23:10;;;;;;;;;;;;;;;;;;5144373;27;19908;-74
2022/03/24 06:25:37;;;;;;;;;;;;;;;;;;5135754;27;19958;-74
2022/03/24 06:28:03;;;;;;;;;;;;;;;;;;5134378;27;20269;-74
2022/03/24 06:30:29;;;;;;;;;;;;;;;;;;5119222;28;19908;-74
2022/03/24 06:32:56;;;;;;;;;;;;;;;;;;5136462;27;20277;-76
2022/03/24 06:35:24;;;;;;;;;;;;;;;;;;5118546;27;19950;-75
2022/03/24 06:37:51;;;;;;;;;;;;;;;;;;5137311;27;19908;-75
2022/03/24 06:40:17;;;;;;;;;;;;;;;;;;5136010;27;20221;-74
2022/03/24 06:42:43;;;;;;;;;;;;;;;;;;5136439;27;20293;-74
2022/03/24 06:45:10;;;;;;;;;;;;;;;;;;5118979;28;19946;-74
2022/03/24 06:47:36;;;;;;;;;;;;;;;;;;5137865;27;19908;-75
2022/03/24 06:50:03;;;;;;;;;;;;;;;;;;5119903;28;19918;-74
2022/03/24 06:52:33;;;;;;;;;;;;;;;;;;5133115;27;19907;-74
2022/03/24 06:54:59;;;;;;;;;;;;;;;;;;5118801;28;20051;-76
2022/03/24 06:57:26;;;;;;;;;;;;;;;;;;5117581;28;19908;-73
2022/03/24 06:59:52;;;;;;;;;;;;;;;;;;5135388;27;19908;-74
2022/03/24 07:02:18;;;;;;;;;;;;;;;;;;5118827;28;19960;-75
2022/03/24 07:04:44;;;;;;;;;;;;;;;;;;5118002;28;19919;-73
2022/03/24 07:07:11;;;;;;;;;;;;;;;;;;5132556;27;19908;-73
2022/03/24 07:09:36;;;;;;;;;;;;;;;;;;5135517;27;20225;-76
2022/03/24 07:12:06;;;;;;;;;;;;;;;;;;5116090;28;19954;-73
2022/03/24 07:14:32;;;;;;;;;;;;;;;;;;5121857;28;19907;-74
2022/03/24 07:16:58;;;;;;;;;;;;;;;;;;5146013;27;19955;-74
2022/03/24 07:19:24;;;;;;;;;;;;;;;;;;5139491;27;19938;-74
2022/03/24 07:21:50;;;;;;;;;;;;;;;;;;5122129;27;19907;-74
2022/03/24 07:24:16;;;;;;;;;;;;;;;;;;5139417;27;19907;-74
2022/03/24 07:26:42;;;;;;;;;;;;;;;;;;5122736;27;19919;-73
2022/03/24 07:29:14;;;;;;;;;;;;;;;;;;5121970;27;19914;-73
2022/03/24 07:31:41;;;;;;;;;;;;;;;;;;5120706;27;20169;-74
2022/03/24 07:34:07;;;;;;;;;;;;;;;;;;5119232;27;19914;-74
2022/03/24 07:36:33;;;;;;;;;;;;;;;;;;5120187;27;20253;-74
2022/03/24 07:39:05;;;;;;;;;;;;;;;;;;5136443;27;19914;-74
2022/03/24 07:41:32;;;;;;;;;;;;;;;;;;5118261;27;19907;-74
2022/03/24 07:43:58;;;;;;;;;;;;;;;;;;5160691;27;19935;-74
2022/03/24 07:46:26;;;;;;;;;;;;;;;;;;5124379;27;19915;-74
2022/03/24 07:48:51;;;;;;;;;;;;;;;;;;5141888;27;19907;-74
2022/03/24 07:51:19;;;;;;;;;;;;;;;;;;5140524;27;19914;-74
2022/03/24 07:53:46;;;;;;;;;;;;;;;;;;5124273;27;19908;-73
2022/03/24 07:56:13;;;;;;;;;;;;;;;;;;5141569;27;19954;-74
2022/03/24 07:58:39;;;;;;;;;;;;;;;;;;5141360;27;19907;-73
2022/03/24 08:01:05;;;;;;;;;;;;;;;;;;5141614;27;19960;-73
2022/03/24 08:03:31;;;;;;;;;;;;;;;;;;5141507;27;20096;-73
2022/03/24 08:05:58;;;;;;;;;;;;;;;;;;5140662;27;19919;-73
2022/03/24 08:08:26;;;;;;;;;;;;;;;;;;5160220;27;19907;-73
2022/03/24 08:10:52;;;;;;;;;;;;;;;;;;5159990;27;19914;-74
2022/03/24 08:13:17;;;;;;;;;;;;;;;;;;5141520;27;19915;-73
2022/03/24 08:15:43;;;;;;;;;;;;;;;;;;5159533;27;19960;-73
2022/03/24 08:18:09;;;;;;;;;;;;;;;;;;5160980;27;19982;-73
2022/03/24 08:20:35;;;;;;;;;;;;;;;;;;5160595;27;20376;-73
2022/03/24 08:23:01;;;;;;;;;;;;;;;;;;5160471;27;19907;-73
2022/03/24 08:25:27;;;;;;;;;;;;;;;;;;5160310;27;19930;-73
2022/03/24 08:27:53;;;;;;;;;;;;;;;;;;5161254;27;19971;-73
2022/03/24 08:30:21;;;;;;;;;;;;;;;;;;5160963;27;19907;-74
2022/03/24 08:32:49;;;;;;;;;;;;;;;;;;5160118;27;19960;-74
2022/03/24 08:35:18;;;;;;;;;;;;;;;;;;5159733;27;20300;-74
2022/03/24 08:37:46;;;;;;;;;;;;;;;;;;5141121;27;19907;-73
2022/03/24 08:40:12;;;;;;;;;;;;;;;;;;5142096;27;19942;-73
2022/03/24 08:42:38;;;;;;;;;;;;;;;;;;5141334;27;20319;-74
2022/03/24 08:45:04;;;;;;;;;;;;;;;;;;5159702;27;19972;-73
2022/03/24 08:47:31;;;;;;;;;;;;;;;;;;5123895;27;20309;-74
2022/03/24 08:49:57;;;;;;;;;;;;;;;;;;5159884;27;19930;-73
2022/03/24 08:52:25;;;;;;;;;;;;;;;;;;5159962;27;20002;-75
2022/03/24 08:54:53;;;;;;;;;;;;;;;;;;5124448;27;19927;-74
2022/03/24 08:57:25;;;;;;;;;;;;;;;;;;5159836;27;20360;-74
2022/03/24 08:59:51;;;;;;;;;;;;;;;;;;5125827;27;19952;-74
2022/03/24 09:02:17;;;;;;;;;;;;;;;;;;5158234;27;20262;-73
2022/03/24 09:04:45;;;;;;;;;;;;;;;;;;5160339;27;19975;-74
2022/03/24 09:07:13;;;;;;;;;;;;;;;;;;5142318;27;20297;-74
2022/03/24 09:09:42;;;;;;;;;;;;;;;;;;5141572;27;19916;-74
2022/03/24 09:12:09;;;;;;;;;;;;;;;;;;5160841;27;19907;-74
2022/03/24 09:14:35;;;;;;;;;;;;;;;;;;5161941;27;19907;-73
2022/03/24 09:17:01;;;;;;;;;;;;;;;;;;5142174;27;19915;-74
2022/03/24 09:19:26;;;;;;;;;;;;;;;;;;5142756;27;20221;-74
2022/03/24 09:21:53;;;;;;;;;;;;;;;;;;5142613;27;19917;-74
2022/03/24 09:24:19;;;;;;;;;;;;;;;;;;5160046;27;20289;-74
2022/03/24 09:26:44;;;;;;;;;;;;;;;;;;5159403;27;20125;-74
2022/03/24 09:29:11;;;;;;;;;;;;;;;;;;5141402;27;19936;-74
2022/03/24 09:31:36;;;;;;;;;;;;;;;;;;5140976;27;19907;-73
2022/03/24 09:34:03;;;;;;;;;;;;;;;;;;5141068;27;19907;-73
2022/03/24 09:36:29;;;;;;;;;;;;;;;;;;5141291;27;19930;-74
2022/03/24 09:38:55;;;;;;;;;;;;;;;;;;5159097;27;19967;-73
2022/03/24 09:41:26;;;;;;;;;;;;;;;;;;5141039;27;20177;-74
2022/03/24 09:43:52;;;;;;;;;;;;;;;;;;5141601;27;20313;-74
2022/03/24 09:46:17;;;;;;;;;;;;;;;;;;5141116;27;20396;-73
2022/03/24 09:48:43;;;;;;;;;;;;;;;;;;5159922;27;19915;-73
2022/03/24 09:51:09;;;;;;;;;;;;;;;;;;5159659;27;19907;-73
2022/03/24 09:53:39;;;;;;;;;;;;;;;;;;5123739;27;19907;-73
2022/03/24 09:56:07;;;;;;;;;;;;;;;;;;5141062;27;19907;-73
2022/03/24 09:58:41;;;;;;;;;;;;;;;;;;5159135;27;20309;-73
2022/03/24 10:01:10;;;;;;;;;;;;;;;;;;5141135;27;19961;-73
2022/03/24 10:03:41;;;;;;;;;;;;;;;;;;5161318;27;20198;-73
2022/03/24 10:06:10;;;;;;;;;;;;;;;;;;5141697;27;19915;-72
2022/03/24 10:08:36;;;;;;;;;;;;;;;;;;5159221;27;20293;-71
2022/03/24 10:11:07;;;;;;;;;;;;;;;;;;5140697;27;19911;-73
2022/03/24 10:13:33;;;;;;;;;;;;;;;;;;5159520;27;19950;-72
2022/03/24 10:15:59;;;;;;;;;;;;;;;;;;5159726;27;19907;-72
2022/03/24 10:18:26;;;;;;;;;;;;;;;;;;5141846;27;19915;-72
2022/03/24 10:20:54;;;;;;;;;;;;;;;;;;5160356;27;19907;-71
2022/03/24 10:23:24;;;;;;;;;;;;;;;;;;5158803;27;19907;-72
2022/03/24 10:25:54;;;;;;;;;;;;;;;;;;5141045;27;19915;-71
2022/03/24 10:28:24;;;;;;;;;;;;;;;;;;5158930;27;19907;-72
2022/03/24 10:30:50;;;;;;;;;;;;;;;;;;5140444;27;19970;-72
2022/03/24 10:33:16;;;;;;;;;;;;;;;;;;5159633;27;19939;-72
2022/03/24 10:35:43;;;;;;;;;;;;;;;;;;5158953;27;19908;-72
2022/03/24 10:38:11;;;;;;;;;;;;;;;;;;5140325;27;20006;-71
2022/03/24 10:40:37;;;;;;;;;;;;;;;;;;5159500;27;19914;-73
2022/03/24 10:43:12;;;;;;;;;;;;;;;;;;5158982;27;19914;-72
2022/03/24 10:45:38;;;;;;;;;;;;;;;;;;5140587;27;20003;-73
2022/03/24 10:48:05;;;;;;;;;;;;;;;;;;5140676;27;20044;-72
2022/03/24 10:50:32;;;;;;;;;;;;;;;;;;5140089;27;19915;-72
2022/03/24 10:52:58;;;;;;;;;;;;;;;;;;5140392;27;19907;-72
2022/03/24 10:55:25;;;;;;;;;;;;;;;;;;5158562;27;19914;-72
2022/03/24 10:57:50;;;;;;;;;;;;;;;;;;5140931;27;20011;-72
2022/03/24 11:00:16;;;;;;;;;;;;;;;;;;5159015;27;19998;-72
2022/03/24 11:02:42;;;;;;;;;;;;;;;;;;5159005;27;19915;-72
2022/03/24 11:05:12;;;;;;;;;;;;;;;;;;5159084;27;20228;-72
2022/03/24 11:07:38;;;;;;;;;;;;;;;;;;5140896;27;19907;-72
2022/03/24 11:10:04;;;;;;;;;;;;;;;;;;5158587;27;19911;-72
2022/03/24 11:12:31;;;;;;;;;;;;;;;;;;5140041;27;19907;-72
2022/03/24 11:15:00;;;;;;;;;;;;;;;;;;5141108;27;19947;-72
2022/03/24 11:17:25;;;;;;;;;;;;;;;;;;5159780;27;19943;-72
2022/03/24 11:19:51;;;;;;;;;;;;;;;;;;5163275;27;19907;-72
2022/03/24 11:22:17;;;;;;;;;;;;;;;;;;5163117;27;20213;-72
2022/03/24 11:24:43;;;;;;;;;;;;;;;;;;5144633;27;20230;-72
2022/03/24 11:27:09;;;;;;;;;;;;;;;;;;5162764;27;19959;-72
2022/03/24 11:29:34;;;;;;;;;;;;;;;;;;5163363;27;20304;-72
2022/03/24 11:32:00;;;;;;;;;;;;;;;;;;5144489;27;19987;-72
2022/03/24 11:34:26;;;;;;;;;;;;;;;;;;5164335;27;20204;-72
2022/03/24 11:36:52;;;;;;;;;;;;;;;;;;5163112;27;19907;-73
2022/03/24 11:39:17;;;;;;;;;;;;;;;;;;5143978;27;20278;-73
2022/03/24 11:41:43;;;;;;;;;;;;;;;;;;5162445;27;20267;-72
2022/03/24 11:44:09;;;;;;;;;;;;;;;;;;5162821;27;19908;-72
2022/03/24 11:46:34;;;;;;;;;;;;;;;;;;5144291;27;19960;-72
2022/03/24 11:49:00;;;;;;;;;;;;;;;;;;5162286;27;20270;-72
2022/03/24 11:51:30;;;;;;;;;;;;;;;;;;5162581;27;19997;-72
2022/03/24 11:53:56;;;;;;;;;;;;;;;;;;5162362;27;20006;-72
2022/03/24 11:56:21;;;;;;;;;;;;;;;;;;5144087;27;19935;-72
2022/03/24 11:58:47;;;;;;;;;;;;;;;;;;5143604;27;20328;-72
2022/03/24 12:01:13;;;;;;;;;;;;;;;;;;5143835;27;19911;-72
2022/03/24 12:03:39;;;;;;;;;;;;;;;;;;5143661;27;19907;-72
2022/03/24 12:06:05;;;;;;;;;;;;;;;;;;5143876;27;19914;-72
2022/03/24 12:08:32;;;;;;;;;;;;;;;;;;5161944;27;19907;-72
2022/03/24 12:10:58;;;;;;;;;;;;;;;;;;5146168;22;20072;-72
2022/03/24 12:13:23;;;;;;;;;;;;;;;;;;5141575;27;19911;-72
2022/03/24 12:15:49;;;;;;;;;;;;;;;;;;5141758;27;19907;-72
2022/03/24 12:18:18;;;;;;;;;;;;;;;;;;5141492;27;19908;-72
2022/03/24 12:20:43;;;;;;;;;;;;;;;;;;5141341;27;19915;-72
2022/03/24 12:23:09;;;;;;;;;;;;;;;;;;5141682;27;20331;-72
2022/03/24 12:25:35;;;;;;;;;;;;;;;;;;5141073;27;19980;-72
2022/03/24 12:28:01;;;;;;;;;;;;;;;;;;5140736;27;19907;-72
2022/03/24 12:30:27;;;;;;;;;;;;;;;;;;5124930;27;20361;-72
2022/03/24 12:32:53;;;;;;;;;;;;;;;;;;5142047;27;19908;-72
2022/03/24 12:35:19;;;;;;;;;;;;;;;;;;5140636;27;20318;-72
2022/03/24 12:37:47;;;;;;;;;;;;;;;;;;5143308;27;19907;-73
2022/03/24 12:40:13;;;;;;;;;;;;;;;;;;5141157;27;20328;-72
2022/03/24 12:42:39;;;;;;;;;;;;;;;;;;5140430;27;19964;-73
2022/03/24 12:45:05;;;;;;;;;;;;;;;;;;5141244;27;19916;-72
2022/03/24 12:47:31;;;;;;;;;;;;;;;;;;5141446;27;19914;-74
2022/03/24 12:49:57;;;;;;;;;;;;;;;;;;5141284;27;19961;-74
2022/03/24 12:52:23;;;;;;;;;;;;;;;;;;5140792;27;19938;-72
2022/03/24 12:54:50;;;;;;;;;;;;;;;;;;5141062;27;19914;-72
2022/03/24 12:57:16;;;;;;;;;;;;;;;;;;5139702;27;19915;-71
2022/03/24 12:59:42;;;;;;;;;;;;;;;;;;5140837;27;19947;-73
2022/03/24 13:02:08;;;;;;;;;;;;;;;;;;5138955;27;19915;-73
2022/03/24 13:04:34;;;;;;;;;;;;;;;;;;5139280;27;20241;-73
2022/03/24 13:07:00;;;;;;;;;;;;;;;;;;5139378;27;19997;-72
2022/03/24 13:09:26;;;;;;;;;;;;;;;;;;5122264;27;20298;-73
2022/03/24 13:11:52;;;;;;;;;;;;;;;;;;5157789;27;19915;-74
2022/03/24 13:14:24;;;;;;;;;;;;;;;;;;5142726;27;19907;-73
2022/03/24 13:16:49;;;;;;;;;;;;;;;;;;5160437;27;19943;-72
2022/03/24 13:19:15;;;;;;;;;;;;;;;;;;5161113;27;20365;-73
2022/03/24 13:21:41;;;;;;;;;;;;;;;;;;5160820;27;19907;-74
2022/03/24 13:24:06;;;;;;;;;;;;;;;;;;5125161;27;19907;-74
2022/03/24 13:26:32;;;;;;;;;;;;;;;;;;5142360;27;20291;-74
2022/03/24 13:28:58;;;;;;;;;;;;;;;;;;5142249;27;19911;-73
2022/03/24 13:31:24;;;;;;;;;;;;;;;;;;5142208;27;19918;-74
2022/03/24 13:33:49;;;;;;;;;;;;;;;;;;5142011;27;19907;-74
2022/03/24 13:36:15;;;;;;;;;;;;;;;;;;5160625;27;20289;-74
2022/03/24 13:38:41;;;;;;;;;;;;;;;;;;5160114;27;19907;-74
2022/03/24 13:41:07;;;;;;;;;;;;;;;;;;5159877;27;20006;-74
2022/03/24 13:43:33;;;;;;;;;;;;;;;;;;5159921;27;20006;-74
2022/03/24 13:45:59;;;;;;;;;;;;;;;;;;5160510;27;20011;-74
2022/03/24 13:48:25;;;;;;;;;;;;;;;;;;5160438;27;20300;-74
2022/03/24 13:50:51;;;;;;;;;;;;;;;;;;5160409;27;19907;-74
2022/03/24 13:53:17;;;;;;;;;;;;;;;;;;5160456;27;19960;-74
2022/03/24 13:55:44;;;;;;;;;;;;;;;;;;5160327;27;20237;-72
2022/03/24 13:58:09;;;;;;;;;;;;;;;;;;5141372;27;19934;-74
2022/03/24 14:00:36;;;;;;;;;;;;;;;;;;5159647;27;19955;-74
2022/03/24 14:03:02;;;;;;;;;;;;;;;;;;5159712;27;19914;-74
2022/03/24 14:05:28;;;;;;;;;;;;;;;;;;5141205;27;19915;-74
2022/03/24 14:07:54;;;;;;;;;;;;;;;;;;5141572;27;19911;-74
2022/03/24 14:10:20;;;;;;;;;;;;;;;;;;5160314;27;19962;-74
2022/03/24 14:12:46;;;;;;;;;;;;;;;;;;5141575;27;19911;-74
2022/03/24 14:15:13;;;;;;;;;;;;;;;;;;5159582;27;19907;-74
2022/03/24 14:17:39;;;;;;;;;;;;;;;;;;5159917;27;19911;-74
2022/03/24 14:20:04;;;;;;;;;;;;;;;;;;5159993;27;19907;-74
2022/03/24 14:22:30;;;;;;;;;;;;;;;;;;5159746;27;19907;-74
2022/03/24 14:24:56;;;;;;;;;;;;;;;;;;5159273;27;19914;-74
2022/03/24 14:27:22;;;;;;;;;;;;;;;;;;5159487;27;20355;-74
2022/03/24 14:29:47;;;;;;;;;;;;;;;;;;5159666;27;19950;-74
2022/03/24 14:32:13;;;;;;;;;;;;;;;;;;5141253;27;20022;-74
2022/03/24 14:34:39;;;;;;;;;;;;;;;;;;5141262;27;19914;-74
2022/03/24 14:37:05;;;;;;;;;;;;;;;;;;5159330;27;19907;-74
2022/03/24 14:39:30;;;;;;;;;;;;;;;;;;5159552;27;20301;-74
2022/03/24 14:41:56;;;;;;;;;;;;;;;;;;5159230;27;19960;-74
2022/03/24 14:44:24;;;;;;;;;;;;;;;;;;5158969;27;19907;-74
2022/03/24 14:46:50;;;;;;;;;;;;;;;;;;5158919;27;20240;-74
2022/03/24 14:49:16;;;;;;;;;;;;;;;;;;5158998;27;19911;-75
2022/03/24 14:51:41;;;;;;;;;;;;;;;;;;5140888;27;20036;-73
2022/03/24 14:54:07;;;;;;;;;;;;;;;;;;5159153;27;19908;-72
2022/03/24 14:56:33;;;;;;;;;;;;;;;;;;5159133;27;19908;-72
2022/03/24 14:58:59;;;;;;;;;;;;;;;;;;5159302;27;19907;-72
2022/03/24 15:01:24;;;;;;;;;;;;;;;;;;5159335;27;19911;-72
2022/03/24 15:03:50;;;;;;;;;;;;;;;;;;5158731;27;19915;-74
2022/03/24 15:06:17;;;;;;;;;;;;;;;;;;5159593;27;19915;-74
2022/03/24 15:08:43;;;;;;;;;;;;;;;;;;5140552;27;20031;-74
2022/03/24 15:11:09;;;;;;;;;;;;;;;;;;5160766;27;20194;-74
2022/03/24 15:13:35;;;;;;;;;;;;;;;;;;5140425;27;19907;-74
2022/03/24 15:16:03;;;;;;;;;;;;;;;;;;5158745;27;19907;-74
2022/03/24 15:18:29;;;;;;;;;;;;;;;;;;5159375;27;19968;-74
2022/03/24 15:20:55;;;;;;;;;;;;;;;;;;5159347;27;19911;-74
2022/03/24 15:23:21;;;;;;;;;;;;;;;;;;5140887;27;19907;-73
2022/03/24 15:25:47;;;;;;;;;;;;;;;;;;5158661;27;20013;-72
2022/03/24 15:28:13;;;;;;;;;;;;;;;;;;5159170;27;20220;-72
2022/03/24 15:30:38;;;;;;;;;;;;;;;;;;5140881;27;19907;-72
2022/03/24 15:33:04;;;;;;;;;;;;;;;;;;5158693;27;19976;-74
2022/03/24 15:35:30;;;;;;;;;;;;;;;;;;5158640;27;19997;-73
2022/03/24 15:37:55;;;;;;;;;;;;;;;;;;5158674;27;19918;-73
2022/03/24 15:40:21;;;;;;;;;;;;;;;;;;5159023;27;19952;-74
2022/03/24 15:42:47;;;;;;;;;;;;;;;;;;5158462;27;19953;-73
2022/03/24 15:45:12;;;;;;;;;;;;;;;;;;5123285;27;19950;-74
2022/03/24 15:47:38;;;;;;;;;;;;;;;;;;5158991;27;19907;-74
2022/03/24 15:50:04;;;;;;;;;;;;;;;;;;5158603;27;19998;-72
2022/03/24 15:52:30;;;;;;;;;;;;;;;;;;5159121;27;19907;-72
2022/03/24 15:54:55;;;;;;;;;;;;;;;;;;5159092;27;20292;-73
2022/03/24 15:57:21;;;;;;;;;;;;;;;;;;5140397;27;19942;-72
2022/03/24 15:59:47;;;;;;;;;;;;;;;;;;5158373;27;19994;-72
2022/03/24 16:02:12;;;;;;;;;;;;;;;;;;5158581;27;19915;-72
2022/03/24 16:04:38;;;;;;;;;;;;;;;;;;5162059;27;19914;-74
2022/03/24 16:07:04;;;;;;;;;;;;;;;;;;5162600;27;19950;-72
2022/03/24 16:09:30;;;;;;;;;;;;;;;;;;5161923;27;19951;-72
2022/03/24 16:11:55;;;;;;;;;;;;;;;;;;5143543;27;19919;-72
2022/03/24 16:14:21;;;;;;;;;;;;;;;;;;5162465;27;19914;-72
2022/03/24 16:16:47;;;;;;;;;;;;;;;;;;5143669;27;19911;-72
2022/03/24 16:19:13;;;;;;;;;;;;;;;;;;5162349;27;19990;-72
2022/03/24 16:21:38;;;;;;;;;;;;;;;;;;5162215;27;20232;-72
2022/03/24 16:24:05;;;;;;;;;;;;;;;;;;5162376;27;19963;-72
2022/03/24 16:26:31;;;;;;;;;;;;;;;;;;5161635;27;19938;-72
2022/03/24 16:28:56;;;;;;;;;;;;;;;;;;5161708;27;19910;-72
2022/03/24 16:31:22;;;;;;;;;;;;;;;;;;5143244;27;19970;-72
2022/03/24 16:33:48;;;;;;;;;;;;;;;;;;5162153;27;19914;-75
2022/03/24 16:36:13;;;;;;;;;;;;;;;;;;5162145;27;20227;-72
2022/03/24 16:38:39;;;;;;;;;;;;;;;;;;5161964;27;19914;-72
2022/03/24 16:41:05;;;;;;;;;;;;;;;;;;5162094;27;19914;-74
2022/03/24 16:43:31;;;;;;;;;;;;;;;;;;5162085;27;19918;-74